createdAt,value
2019-05-02T00:00:58.246Z,56.86
2019-05-02T00:03:28.977Z,56.89
2019-05-02T00:05:58.110Z,56.98
2019-05-02T00:08:29.247Z,57.06
2019-05-02T00:10:58.034Z,57.04
2019-05-02T00:13:27.129Z,57.08
2019-05-02T00:15:56.234Z,57.16
2019-05-02T00:18:25.869Z,57.19
2019-05-02T00:20:57.018Z,57.23
2019-05-02T00:23:28.006Z,57.16
2019-05-02T00:25:56.595Z,57.18
2019-05-02T00:28:25.682Z,57.23
2019-05-02T00:30:54.797Z,57.21
2019-05-02T00:33:23.904Z,57.19
2019-05-02T00:35:52.936Z,57.22
2019-05-02T00:38:22.011Z,57.24
2019-05-02T00:40:51.078Z,57.24
2019-05-02T00:43:20.208Z,57.27
2019-05-02T00:45:49.407Z,57.26
2019-05-02T00:48:24.410Z,57.30
2019-05-02T00:50:53.447Z,57.25
2019-05-02T00:53:22.541Z,57.31
2019-05-02T00:55:51.653Z,57.34
2019-05-02T00:58:20.742Z,57.35
2019-05-02T01:01:12.361Z,57.27
2019-05-02T01:03:47.217Z,57.32
2019-05-02T01:06:15.488Z,57.33
2019-05-02T01:08:44.731Z,57.41
2019-05-02T01:11:13.988Z,57.46
2019-05-02T01:13:43.079Z,57.60
2019-05-02T01:16:15.248Z,57.56
2019-05-02T01:18:43.533Z,57.48
2019-05-02T01:21:12.716Z,57.58
2019-05-02T01:23:41.809Z,57.52
2019-05-02T01:26:11.566Z,57.51
2019-05-02T01:28:53.820Z,57.52
2019-05-02T01:31:30.194Z,57.51
2019-05-02T01:34:06.728Z,57.54
2019-05-02T01:36:50.330Z,57.64
2019-05-02T01:39:19.422Z,57.73
2019-05-02T01:41:48.522Z,57.78
2019-05-02T01:44:17.581Z,57.83
2019-05-02T01:46:46.661Z,57.86
2019-05-02T01:49:16.869Z,57.82
2019-05-02T01:51:47.746Z,57.86
2019-05-02T01:54:17.316Z,57.88
2019-05-02T01:56:46.381Z,57.92
2019-05-02T01:59:15.539Z,57.94
2019-05-02T02:01:44.651Z,57.87
2019-05-02T02:04:16.251Z,57.85
2019-05-02T02:06:45.153Z,57.87
2019-05-02T02:09:14.511Z,57.82
2019-05-02T02:11:43.624Z,57.92
2019-05-02T02:14:16.175Z,57.96
2019-05-02T02:16:43.640Z,57.94
2019-05-02T02:19:27.128Z,57.90
2019-05-02T02:22:12.052Z,57.87
2019-05-02T02:24:44.584Z,57.94
2019-05-02T02:27:13.814Z,58.05
2019-05-02T02:29:43.962Z,58.14
2019-05-02T02:32:20.268Z,58.19
2019-05-02T02:34:44.566Z,58.19
2019-05-02T02:37:15.221Z,58.04
2019-05-02T02:39:48.503Z,58.05
2019-05-02T02:42:15.371Z,57.98
2019-05-02T02:44:53.090Z,57.93
2019-05-02T02:47:22.225Z,58.01
2019-05-02T02:49:55.844Z,58.03
2019-05-02T02:52:22.116Z,58.04
2019-05-02T02:54:51.248Z,58.08
2019-05-02T02:57:26.286Z,58.08
2019-05-02T02:59:51.170Z,57.93
2019-05-02T03:02:20.327Z,57.99
2019-05-02T03:04:49.390Z,57.81
2019-05-02T03:07:25.934Z,57.82
2019-05-02T03:09:49.389Z,57.81
2019-05-02T03:12:49.405Z,57.67
2019-05-02T03:15:20.774Z,57.66
2019-05-02T03:17:52.707Z,57.30
2019-05-02T03:20:21.497Z,57.05
2019-05-02T03:22:50.568Z,56.96
2019-05-02T03:25:27.087Z,56.90
2019-05-02T03:27:50.566Z,56.83
2019-05-02T03:30:33.162Z,56.78
2019-05-02T03:33:06.119Z,56.72
2019-05-02T03:35:40.875Z,56.55
2019-05-02T03:37:53.153Z,56.40
2019-05-02T03:40:22.486Z,56.50
2019-05-02T03:42:51.819Z,56.47
2019-05-02T03:45:21.252Z,56.26
2019-05-02T03:47:50.549Z,56.14
2019-05-02T03:50:31.068Z,55.97
2019-05-02T03:52:50.552Z,55.92
2019-05-02T03:55:23.742Z,55.86
2019-05-02T03:57:50.573Z,55.84
2019-05-02T04:00:21.958Z,55.92
2019-05-02T04:02:58.964Z,55.88
2019-05-02T04:05:21.991Z,55.92
2019-05-02T04:07:51.408Z,55.72
2019-05-02T04:10:59.630Z,55.60
2019-05-02T04:13:30.070Z,55.45
2019-05-02T04:15:57.369Z,55.45
2019-05-02T04:18:26.871Z,55.55
2019-05-02T04:20:56.241Z,55.47
2019-05-02T04:23:27.697Z,55.34
2019-05-02T04:25:57.150Z,55.29
2019-05-02T04:28:27.807Z,55.24
2019-05-02T04:30:57.247Z,55.19
2019-05-02T04:33:29.123Z,55.12
2019-05-02T04:35:59.556Z,55.10
2019-05-02T04:38:39.215Z,54.96
2019-05-02T04:41:00.000Z,54.89
2019-05-02T04:43:29.475Z,54.89
2019-05-02T04:46:00.198Z,54.72
2019-05-02T04:48:34.532Z,54.78
2019-05-02T04:51:09.881Z,54.81
2019-05-02T04:53:36.711Z,54.90
2019-05-02T04:56:07.076Z,54.75
2019-05-02T04:58:37.071Z,54.75
2019-05-02T05:01:04.446Z,54.70
2019-05-02T05:03:33.572Z,54.46
2019-05-02T05:06:10.257Z,54.27
2019-05-02T05:08:33.477Z,54.06
2019-05-02T05:11:02.606Z,53.86
2019-05-02T05:13:31.759Z,53.83
2019-05-02T05:16:02.885Z,53.72
2019-05-02T05:18:31.660Z,53.56
2019-05-02T05:21:00.733Z,53.46
2019-05-02T05:23:56.680Z,53.42
2019-05-02T05:26:22.569Z,53.25
2019-05-02T05:28:51.627Z,53.05
2019-05-02T05:31:23.822Z,52.90
2019-05-02T05:33:51.818Z,52.88
2019-05-02T05:36:29.172Z,52.72
2019-05-02T05:38:51.709Z,52.75
2019-05-02T05:41:23.101Z,52.54
2019-05-02T05:43:53.633Z,52.21
2019-05-02T05:46:22.584Z,52.17
2019-05-02T05:48:51.661Z,52.14
2019-05-02T05:51:20.863Z,52.08
2019-05-02T05:53:52.269Z,52.01
2019-05-02T05:56:20.806Z,52.02
2019-05-02T05:58:52.496Z,51.88
2019-05-02T06:01:26.236Z,51.79
2019-05-02T06:03:51.666Z,51.71
2019-05-02T06:06:23.202Z,51.42
2019-05-02T06:08:54.246Z,51.40
2019-05-02T06:11:22.464Z,51.43
2019-05-02T06:13:51.528Z,51.40
2019-05-02T06:16:20.654Z,51.34
2019-05-02T06:18:49.718Z,50.85
2019-05-02T06:21:18.976Z,50.81
2019-05-02T06:23:48.055Z,50.74
2019-05-02T06:26:17.188Z,50.70
2019-05-02T06:28:46.358Z,50.51
2019-05-02T06:31:17.104Z,50.27
2019-05-02T06:33:46.385Z,50.15
2019-05-02T06:36:15.423Z,50.00
2019-05-02T06:38:44.510Z,49.82
2019-05-02T06:41:16.153Z,49.85
2019-05-02T06:43:46.648Z,49.80
2019-05-02T06:46:16.612Z,49.51
2019-05-02T06:48:48.145Z,49.56
2019-05-02T06:51:19.579Z,49.67
2019-05-02T06:53:49.006Z,49.53
2019-05-02T06:56:18.089Z,49.56
2019-05-02T06:58:47.204Z,49.40
2019-05-02T07:01:21.129Z,49.36
2019-05-02T07:03:47.617Z,49.35
2019-05-02T07:06:16.840Z,49.41
2019-05-02T07:08:46.158Z,49.08
2019-05-02T07:11:15.326Z,49.01
2019-05-02T07:13:44.417Z,49.03
2019-05-02T07:16:38.542Z,48.93
2019-05-02T07:19:16.560Z,49.03
2019-05-02T07:21:45.869Z,48.99
2019-05-02T07:24:14.941Z,48.77
2019-05-02T07:26:44.027Z,48.69
2019-05-02T07:29:17.108Z,48.41
2019-05-02T07:31:47.700Z,48.33
2019-05-02T07:34:14.762Z,48.12
2019-05-02T07:36:43.838Z,48.32
2019-05-02T07:39:13.056Z,48.22
2019-05-02T07:41:42.098Z,48.01
2019-05-02T07:44:11.244Z,47.65
2019-05-02T07:46:51.258Z,47.72
2019-05-02T07:49:11.076Z,47.64
2019-05-02T07:51:40.163Z,47.66
2019-05-02T07:54:09.675Z,47.60
2019-05-02T07:56:38.731Z,47.38
2019-05-02T07:59:07.771Z,47.38
2019-05-02T08:01:36.899Z,47.35
2019-05-02T08:04:11.297Z,47.36
2019-05-02T08:06:40.211Z,47.08
2019-05-02T08:09:09.179Z,46.96
2019-05-02T08:11:38.875Z,46.99
2019-05-02T08:14:07.937Z,46.65
2019-05-02T08:16:37.059Z,46.50
2019-05-02T08:19:06.897Z,46.53
2019-05-02T08:21:35.992Z,46.47
2019-05-02T08:24:05.152Z,46.48
2019-05-02T08:26:53.383Z,46.44
2019-05-02T08:29:23.324Z,46.48
2019-05-02T08:31:53.736Z,46.38
2019-05-02T08:34:30.214Z,46.42
2019-05-02T08:37:03.388Z,46.14
2019-05-02T08:39:33.741Z,46.20
2019-05-02T08:42:01.185Z,46.30
2019-05-02T08:44:30.400Z,46.36
2019-05-02T08:46:59.729Z,46.33
2019-05-02T08:49:28.926Z,46.22
2019-05-02T08:51:58.085Z,45.80
2019-05-02T08:54:28.031Z,45.56
2019-05-02T08:56:59.092Z,45.46
2019-05-02T08:59:28.981Z,45.57
2019-05-02T09:01:58.506Z,45.32
2019-05-02T09:04:29.043Z,45.43
2019-05-02T09:07:00.510Z,45.35
2019-05-02T09:09:29.588Z,45.06
2019-05-02T09:12:09.691Z,45.15
2019-05-02T09:14:29.597Z,45.17
2019-05-02T09:17:00.134Z,44.96
2019-05-02T09:19:32.419Z,44.93
2019-05-02T09:22:02.440Z,44.65
2019-05-02T09:24:32.596Z,44.54
2019-05-02T09:27:02.536Z,44.38
2019-05-02T09:29:32.701Z,44.29
2019-05-02T09:32:02.256Z,43.93
2019-05-02T09:34:31.893Z,43.85
2019-05-02T09:37:02.738Z,43.93
2019-05-02T09:39:36.376Z,43.76
2019-05-02T09:42:06.647Z,43.71
2019-05-02T09:44:33.445Z,43.60
2019-05-02T09:47:02.555Z,43.69
2019-05-02T09:49:32.460Z,43.48
2019-05-02T09:52:03.328Z,43.60
2019-05-02T09:54:37.061Z,43.28
2019-05-02T09:57:03.355Z,43.24
2019-05-02T09:59:33.346Z,43.21
2019-05-02T10:02:05.293Z,43.01
2019-05-02T10:04:34.335Z,42.77
2019-05-02T10:07:03.430Z,42.88
2019-05-02T10:09:32.545Z,42.42
2019-05-02T10:12:02.129Z,42.09
2019-05-02T10:14:33.027Z,42.24
2019-05-02T10:17:06.981Z,41.96
2019-05-02T10:19:33.308Z,41.73
2019-05-02T10:22:02.412Z,40.88
2019-05-02T10:24:32.236Z,39.14
2019-05-02T10:27:04.282Z,38.12
2019-05-02T10:29:32.977Z,36.08
2019-05-02T10:32:02.264Z,35.22
2019-05-02T10:34:32.996Z,33.66
2019-05-02T10:37:03.104Z,32.64
2019-05-02T10:39:33.980Z,30.38
2019-05-02T10:42:03.374Z,28.20
2019-05-02T10:44:36.376Z,26.80
2019-05-02T10:47:03.374Z,24.58
2019-05-02T10:49:50.189Z,24.52
2019-05-02T10:52:21.676Z,24.13
2019-05-02T10:54:50.167Z,23.17
2019-05-02T10:57:19.326Z,21.59
2019-05-02T10:59:48.528Z,20.44
2019-05-02T11:02:32.714Z,19.78
2019-05-02T11:05:06.501Z,18.85
2019-05-02T11:07:35.781Z,18.56
2019-05-02T11:10:06.781Z,18.84
2019-05-02T11:12:56.349Z,18.87
2019-05-02T11:15:47.672Z,18.64
2019-05-02T11:18:22.033Z,18.32
2019-05-02T11:20:52.481Z,18.53
2019-05-02T11:23:22.155Z,19.05
2019-05-02T11:25:52.631Z,19.24
2019-05-02T11:28:22.088Z,18.47
2019-05-02T11:30:52.453Z,18.13
2019-05-02T11:33:22.959Z,17.81
2019-05-02T11:35:58.760Z,18.31
2019-05-02T11:38:31.864Z,18.95
2019-05-02T11:41:02.729Z,19.24
2019-05-02T11:43:32.659Z,19.80
2019-05-02T11:46:07.085Z,20.11
2019-05-02T11:48:32.885Z,21.12
2019-05-02T11:51:02.745Z,21.31
2019-05-02T11:53:32.664Z,21.71
2019-05-02T11:56:03.657Z,22.47
2019-05-02T11:58:33.010Z,22.54
2019-05-02T12:01:05.281Z,22.84
2019-05-02T12:03:45.680Z,23.37
2019-05-02T12:06:19.529Z,23.53
2019-05-02T12:08:49.335Z,24.05
2019-05-02T12:11:17.843Z,24.17
2019-05-02T12:13:51.667Z,24.06
2019-05-02T12:16:18.476Z,24.50
2019-05-02T12:18:47.794Z,24.58
2019-05-02T12:21:17.054Z,24.61
2019-05-02T12:23:46.336Z,24.93
2019-05-02T12:26:15.416Z,24.86
2019-05-02T12:28:44.508Z,25.07
2019-05-02T12:31:27.039Z,25.07
2019-05-02T12:33:56.423Z,25.22
2019-05-02T12:36:25.595Z,25.37
2019-05-02T12:38:54.658Z,25.59
2019-05-02T12:41:25.274Z,25.79
2019-05-02T12:43:54.560Z,25.98
2019-05-02T12:46:23.705Z,25.90
2019-05-02T12:48:52.902Z,25.86
2019-05-02T12:51:22.695Z,25.94
2019-05-02T12:53:52.824Z,26.14
2019-05-02T12:56:22.934Z,26.13
2019-05-02T12:58:53.132Z,26.24
2019-05-02T13:01:22.468Z,26.32
2019-05-02T13:04:08.560Z,26.24
2019-05-02T13:06:37.811Z,26.21
2019-05-02T13:09:13.158Z,26.54
2019-05-02T13:12:02.992Z,26.33
2019-05-02T13:14:32.694Z,26.59
2019-05-02T13:17:05.561Z,26.76
2019-05-02T13:19:40.136Z,26.85
2019-05-02T13:22:22.768Z,26.77
2019-05-02T13:25:02.419Z,26.57
2019-05-02T13:27:42.997Z,26.50
2019-05-02T13:30:03.600Z,26.84
2019-05-02T13:32:57.978Z,26.82
2019-05-02T13:35:46.161Z,26.93
2019-05-02T13:38:18.313Z,27.23
2019-05-02T13:40:47.345Z,27.12
2019-05-02T13:43:16.543Z,27.07
2019-05-02T13:46:22.599Z,26.95
2019-05-02T13:48:52.521Z,26.84
2019-05-02T13:51:22.308Z,26.98
2019-05-02T13:53:57.563Z,27.11
2019-05-02T13:56:45.574Z,27.22
2019-05-02T13:59:15.245Z,27.18
2019-05-02T14:01:45.207Z,27.11
2019-05-02T14:04:15.048Z,27.31
2019-05-02T14:06:44.288Z,27.64
2019-05-02T14:09:32.376Z,27.30
2019-05-02T14:12:19.589Z,27.27
2019-05-02T14:14:48.679Z,27.41
2019-05-02T14:17:17.880Z,27.37
2019-05-02T14:19:47.004Z,27.35
2019-05-02T14:22:17.136Z,27.51
2019-05-02T14:24:46.369Z,27.71
2019-05-02T14:27:17.077Z,27.41
2019-05-02T14:29:46.675Z,27.62
2019-05-02T14:32:23.706Z,27.78
2019-05-02T14:34:56.654Z,28.26
2019-05-02T14:37:25.746Z,28.60
2019-05-02T14:40:02.121Z,29.02
2019-05-02T14:42:32.256Z,29.40
2019-05-02T14:45:11.884Z,29.73
2019-05-02T14:47:32.647Z,30.13
2019-05-02T14:50:04.848Z,30.70
2019-05-02T14:52:37.154Z,31.39
2019-05-02T14:55:04.482Z,32.05
2019-05-02T14:57:33.556Z,33.11
2019-05-02T15:00:03.436Z,34.79
2019-05-02T15:02:47.516Z,36.39
2019-05-02T15:05:14.511Z,37.78
2019-05-02T15:07:43.645Z,38.64
2019-05-02T15:10:12.928Z,39.75
2019-05-02T15:12:42.563Z,40.26
2019-05-02T15:15:12.420Z,40.96
2019-05-02T15:17:42.010Z,41.52
2019-05-02T15:20:12.996Z,42.03
2019-05-02T15:22:42.700Z,42.64
2019-05-02T15:25:17.856Z,42.73
2019-05-02T15:27:45.454Z,42.93
2019-05-02T15:30:16.136Z,43.14
2019-05-02T15:33:05.516Z,43.22
2019-05-02T15:35:52.769Z,43.23
2019-05-02T15:38:27.746Z,43.40
2019-05-02T15:40:53.822Z,43.35
2019-05-02T15:43:23.326Z,43.63
2019-05-02T15:45:52.746Z,43.88
2019-05-02T15:48:27.318Z,43.92
2019-05-02T15:50:55.340Z,44.14
2019-05-02T15:54:01.905Z,44.31
2019-05-02T15:56:21.781Z,44.47
2019-05-02T15:58:52.179Z,44.69
2019-05-02T16:01:28.547Z,44.88
2019-05-02T16:03:58.446Z,44.96
2019-05-02T16:06:31.724Z,45.09
2019-05-02T16:08:58.604Z,45.35
2019-05-02T16:11:27.786Z,45.66
2019-05-02T16:13:57.131Z,46.02
2019-05-02T16:16:26.287Z,46.16
2019-05-02T16:18:55.407Z,46.31
2019-05-02T16:21:42.503Z,46.42
2019-05-02T16:24:22.894Z,46.58
2019-05-02T16:26:53.104Z,46.67
2019-05-02T16:29:26.791Z,47.01
2019-05-02T16:32:01.206Z,47.35
2019-05-02T16:34:33.825Z,47.57
2019-05-02T16:37:16.639Z,48.27
2019-05-02T16:39:49.521Z,49.12
2019-05-02T16:42:14.022Z,49.68
2019-05-02T16:44:48.583Z,49.21
2019-05-02T16:47:18.369Z,48.68
2019-05-02T16:49:47.942Z,48.94
2019-05-02T16:52:22.767Z,48.78
2019-05-02T16:54:54.562Z,48.98
2019-05-02T16:57:23.880Z,49.17
2019-05-02T17:00:00.713Z,49.42
2019-05-02T17:02:23.922Z,49.73
2019-05-02T17:04:54.735Z,49.82
2019-05-02T17:07:39.529Z,50.04
2019-05-02T17:10:17.823Z,50.55
2019-05-02T17:12:47.355Z,50.86
2019-05-02T17:15:31.055Z,50.95
2019-05-02T17:18:04.906Z,50.96
2019-05-02T17:20:31.997Z,50.84
2019-05-02T17:23:03.278Z,51.09
2019-05-02T17:25:32.283Z,51.10
2019-05-02T17:28:07.022Z,51.10
2019-05-02T17:30:38.571Z,51.10
2019-05-02T17:33:16.077Z,51.30
2019-05-02T17:35:49.570Z,51.39
2019-05-02T17:38:13.998Z,51.34
2019-05-02T17:40:43.056Z,51.53
2019-05-02T17:43:12.134Z,51.59
2019-05-02T17:45:41.287Z,51.77
2019-05-02T17:48:16.419Z,52.07
2019-05-02T17:51:02.086Z,52.11
2019-05-02T17:53:33.528Z,52.34
2019-05-02T17:56:02.036Z,52.61
2019-05-02T17:58:31.824Z,52.92
2019-05-02T18:01:02.827Z,52.87
2019-05-02T18:03:35.227Z,53.06
2019-05-02T18:06:02.924Z,53.23
2019-05-02T18:08:33.642Z,53.25
2019-05-02T18:11:03.054Z,53.28
2019-05-02T18:13:33.837Z,53.17
2019-05-02T18:16:07.640Z,53.28
2019-05-02T18:18:37.416Z,53.61
2019-05-02T18:21:05.098Z,53.66
2019-05-02T18:23:34.194Z,53.74
2019-05-02T18:26:06.175Z,53.75
2019-05-02T18:28:45.807Z,53.84
2019-05-02T18:31:05.950Z,53.99
2019-05-02T18:33:36.054Z,54.00
2019-05-02T18:36:06.110Z,54.03
2019-05-02T18:38:35.182Z,54.02
2019-05-02T18:41:06.208Z,54.01
2019-05-02T18:43:36.016Z,54.08
2019-05-02T18:46:07.524Z,54.13
2019-05-02T18:48:41.401Z,54.25
2019-05-02T18:51:07.416Z,54.33
2019-05-02T18:53:36.452Z,54.43
2019-05-02T18:56:05.563Z,54.58
2019-05-02T18:58:36.225Z,54.53
2019-05-02T19:01:08.394Z,54.45
2019-05-02T19:03:36.445Z,54.67
2019-05-02T19:06:05.493Z,54.74
2019-05-02T19:08:45.236Z,54.98
2019-05-02T19:11:12.029Z,55.07
2019-05-02T19:13:42.992Z,55.21
2019-05-02T19:16:09.227Z,55.31
2019-05-02T19:18:38.223Z,55.42
2019-05-02T19:21:08.107Z,55.48
2019-05-02T19:23:37.148Z,55.66
2019-05-02T19:26:10.186Z,55.56
2019-05-02T19:28:55.443Z,55.59
2019-05-02T19:31:27.769Z,55.73
2019-05-02T19:33:58.826Z,55.66
2019-05-02T19:36:27.899Z,55.81
2019-05-02T19:39:05.762Z,55.93
2019-05-02T19:41:27.675Z,55.84
2019-05-02T19:43:56.836Z,55.91
2019-05-02T19:46:34.732Z,55.86
2019-05-02T19:48:56.895Z,56.01
2019-05-02T19:51:28.157Z,56.18
2019-05-02T19:53:59.511Z,56.30
2019-05-02T19:56:27.647Z,56.31
2019-05-02T19:58:57.062Z,56.39
2019-05-02T20:01:26.609Z,56.40
2019-05-02T20:03:56.743Z,56.45
2019-05-02T20:06:26.825Z,56.37
2019-05-02T20:08:59.244Z,56.46
2019-05-02T20:11:28.073Z,56.40
2019-05-02T20:14:00.660Z,56.30
2019-05-02T20:16:53.413Z,56.45
2019-05-02T20:19:26.803Z,56.58
2019-05-02T20:22:11.801Z,56.51
2019-05-02T20:24:55.429Z,56.57
2019-05-02T20:27:23.365Z,56.58
2019-05-02T20:29:52.417Z,56.69
2019-05-02T20:32:22.086Z,56.82
2019-05-02T20:34:51.373Z,56.79
2019-05-02T20:37:22.123Z,56.82
2019-05-02T20:39:51.486Z,56.90
2019-05-02T20:42:20.582Z,56.68
2019-05-02T20:44:49.644Z,56.54
2019-05-02T20:47:23.266Z,56.34
2019-05-02T20:49:52.321Z,56.41
2019-05-02T20:52:22.125Z,56.15
2019-05-02T20:54:52.376Z,56.02
2019-05-02T20:57:21.698Z,56.08
2019-05-02T20:59:52.557Z,56.01
2019-05-02T21:02:21.596Z,55.81
2019-05-02T21:04:52.166Z,55.34
2019-05-02T21:07:38.677Z,55.07
2019-05-02T21:10:13.824Z,54.90
2019-05-02T21:12:42.907Z,54.90
2019-05-02T21:15:12.465Z,54.79
2019-05-02T21:17:42.190Z,54.79
2019-05-02T21:20:12.476Z,54.82
2019-05-02T21:22:42.192Z,54.84
2019-05-02T21:25:13.059Z,54.77
2019-05-02T21:27:42.301Z,54.80
2019-05-02T21:30:12.445Z,54.69
2019-05-02T21:32:42.797Z,54.77
2019-05-02T21:35:12.062Z,54.74
2019-05-02T21:37:42.482Z,54.79
2019-05-02T21:40:11.870Z,54.75
2019-05-02T21:42:42.492Z,54.68
2019-05-02T21:45:13.228Z,54.57
2019-05-02T21:47:42.418Z,54.56
2019-05-02T21:50:17.462Z,54.48
2019-05-02T21:53:05.502Z,54.55
2019-05-02T21:55:51.983Z,54.64
2019-05-02T21:58:21.563Z,54.75
2019-05-02T22:01:02.035Z,54.93
2019-05-02T22:03:32.430Z,55.13
2019-05-02T22:06:01.625Z,55.28
2019-05-02T22:08:32.341Z,55.45
2019-05-02T22:11:01.621Z,55.50
2019-05-02T22:13:31.549Z,55.55
2019-05-02T22:16:02.309Z,55.62
2019-05-02T22:18:32.172Z,55.83
2019-05-02T22:21:01.768Z,55.91
2019-05-02T22:23:31.882Z,55.92
2019-05-02T22:26:02.147Z,55.83
2019-05-02T22:28:32.750Z,55.82
2019-05-02T22:31:03.179Z,55.70
2019-05-02T22:33:32.898Z,55.52
2019-05-02T22:36:02.133Z,55.35
2019-05-02T22:38:50.314Z,55.20
2019-05-02T22:41:19.341Z,54.80
2019-05-02T22:43:48.385Z,54.68
2019-05-02T22:46:36.343Z,54.65
2019-05-02T22:49:05.466Z,54.64
2019-05-02T22:51:34.471Z,54.65
2019-05-02T22:54:03.586Z,54.75
2019-05-02T22:56:32.691Z,54.89
2019-05-02T22:59:02.188Z,54.73
2019-05-02T23:01:32.370Z,54.68
2019-05-02T23:04:01.961Z,54.64
2019-05-02T23:06:31.207Z,54.61
2019-05-02T23:09:03.679Z,54.41
2019-05-02T23:11:33.039Z,54.34
2019-05-02T23:14:02.077Z,54.28
2019-05-02T23:16:32.264Z,54.31
2019-05-02T23:19:02.938Z,54.43
2019-05-02T23:21:32.554Z,54.24
2019-05-02T23:24:03.414Z,54.19
2019-05-02T23:26:54.286Z,54.31
2019-05-02T23:29:23.379Z,54.25
2019-05-02T23:31:52.442Z,54.19
2019-05-02T23:34:23.664Z,54.24
2019-05-02T23:36:52.815Z,54.18
2019-05-02T23:39:21.881Z,54.24
2019-05-02T23:41:52.493Z,54.26
2019-05-02T23:44:22.845Z,54.20
2019-05-02T23:46:52.060Z,54.20
2019-05-02T23:49:22.089Z,54.09
2019-05-02T23:51:51.402Z,54.12
2019-05-02T23:54:22.016Z,54.06
2019-05-02T23:56:51.124Z,54.12
2019-05-02T23:59:22.226Z,54.11
